• Join FlightAware (Why Join?)
  • Login
  • US Flag 
03:22PM EDT


 

Airport Tracker/Info


-or-


 

Live Flight TrackerFlight Track Log ✈ OPT471 ✈ 11-May-2013 ✈ KBFI - KSMO

Flight Track Log - Related Links

Times and Time Zones

All times are in EDT time to prevent confusion due to time zone crossing. See the OPT471 flight status page for this flight to view local times or setup timezone preferences in your user account.

Time Position Orientation Groundspeed Altitude Reporting Facility
EDT Latitude Longitude Course Direction KTS MPH feet Rate Location/Type
03:20PM 47.4889 -122.2667 147° Southeast 161 185 2,400  Level Seattle Center
03:21PM 47.4425 -122.2186 145° Southeast 199 229 5,100 1,680 Climbing Seattle Center
03:22PM 47.3786 -122.1867 161° South 231 266 5,900 1,560 Climbing Seattle Center
03:23PM 47.3131 -122.1758 174° South 235 270 8,300 2,640 Climbing Seattle Center
03:24PM 47.2475 -122.1653 174° South 236 272 11,300 2,700 Climbing Seattle Center
03:25PM 47.1800 -122.1514 172° South 245 282 13,800 2,400 Climbing Seattle Center
03:26PM 47.1108 -122.1758 194° South 254 292 16,200 2,100 Climbing Seattle Center
03:27PM 47.0444 -122.1764 180° South 265 305 18,100 2,100 Climbing Seattle Center
03:28PM 46.9694 -122.1708 177° South 273 314 20,500 2,160 Climbing Seattle Center
03:29PM 46.8789 -122.1600 175° South 276 318 22,600 1,680 Climbing Seattle Center
03:30PM 46.7967 -122.1539 177° South 298 343 24,000 1,320 Climbing Seattle Center
03:31PM 46.7092 -122.1433 175° South 316 364 25,300 1,320 Climbing Seattle Center
03:32PM 46.6164 -122.1347 176° South 334 384 26,700 1,320 Climbing Seattle Center
03:33PM 46.5228 -122.1269 177° South 340 391 28,100 1,320 Climbing Seattle Center
03:34PM 46.4286 -122.1169 176° South 343 395 29,500 1,320 Climbing Seattle Center
03:35PM 46.3325 -122.1072 176° South 349 402 30,800 1,200 Climbing Seattle Center
03:36PM 46.2367 -122.0989 177° South 351 404 32,000 1,080 Climbing Seattle Center
03:37PM 46.1300 -122.0872 176° South 354 407 33,100 1,020 Climbing Seattle Center
03:38PM 46.0297 -122.0778 176° South 359 413 34,100 960 Climbing Seattle Center
03:39PM 45.9303 -122.0667 176° South 359 413 35,100 900 Climbing Seattle Center
03:40PM 45.8294 -122.0581 177° South 362 417 36,000 840 Climbing Seattle Center
03:41PM 45.7278 -122.0506 177° South 364 419 36,800 720 Climbing Seattle Center
03:42PM 45.6253 -122.0419 177° South 365 420 37,500 720 Climbing Seattle Center
03:43PM 45.4969 -122.0272 175° South 379 436 38,300 780 Climbing Seattle Center
03:44PM 45.3911 -122.0167 176° South 382 440 39,100 720 Climbing Seattle Center
03:45PM 45.2842 -122.0056 176° South 383 441 39,800 540 Climbing Seattle Center
03:46PM 45.1806 -121.9967 177° South 376 433 40,300 420 Climbing Seattle Center
03:47PM 45.0750 -121.9864 176° South 378 435 40,700 300 Climbing Seattle Center
03:48PM 44.9675 -121.9767 176° South 383 441 41,000 120 Climbing Seattle Center
03:49PM 44.8458 -121.9644 176° South 396 456 41,000  Level Seattle Center
03:50PM 44.7328 -121.9542 176° South 405 466 41,000  Level Seattle Center
03:51PM 44.6169 -121.9428 176° South 412 474 41,000  Level Seattle Center
03:52PM 44.5011 -121.9319 176° South 415 478 41,000  Level Seattle Center
03:53PM 44.3858 -121.9219 176° South 415 478 41,000  Level Seattle Center
03:54PM 44.2711 -121.9117 176° South 412 474 41,000  Level Seattle Center
03:55PM 44.1583 -121.9006 176° South 407 468 41,000  Level Seattle Center
03:56PM 44.0436 -121.8908 177° South 410 472 41,000  Level Seattle Center
03:57PM 43.9306 -121.8803 176° South 407 468 41,000  Level Seattle Center
03:58PM 43.8058 -121.8717 177° South 412 474 41,000  Level Seattle Center
03:59PM 43.6911 -121.8611 176° South 414 476 41,000  Level Seattle Center
04:00PM 43.5772 -121.8486 175° South 410 472 41,000  Level Seattle Center
04:01PM 43.4636 -121.8406 177° South 409 471 41,000  Level Seattle Center
04:02PM 43.3497 -121.8283 176° South 410 472 41,000  Level Seattle Center
04:03PM 43.2353 -121.8192 177° South 412 474 41,000  Level Seattle Center
04:04PM 43.1203 -121.8089 176° South 412 474 41,000  Level Seattle Center
04:05PM 43.0061 -121.8019 177° South 412 474 41,000  Level Seattle Center
04:07PM 42.8911 -121.7925 177° South 414 476 41,000  Level Seattle Center
04:08PM 42.7758 -121.7814 176° South 414 476 41,000  Level Seattle Center
04:09PM 42.6600 -121.7717 176° South 415 478 41,000  Level Seattle Center
04:10PM 42.5433 -121.7611 176° South 418 481 41,000  Level Seattle Center
04:11PM 42.4272 -121.7508 176° South 418 481 41,000  Level Seattle Center
04:12PM 42.3108 -121.7400 176° South 416 479 41,000  Level Seattle Center
04:13PM 42.1914 -121.7294 176° South 422 486 41,000  Level Seattle Center
04:14PM 42.0722 -121.7028 171° South 426 490 41,000  Level Seattle Center
04:15PM 41.9544 -121.6692 168° South 426 490 41,000  Level Seattle Center
04:16PM 41.8364 -121.6344 168° South 428 493 41,000  Level Seattle Center
04:17PM 41.7192 -121.5989 167° South 428 493 41,000  Level Seattle Center
04:18PM 41.6019 -121.5644 168° South 430 495 41,000  Level Seattle Center
04:19PM 41.4844 -121.5303 168° South 431 496 41,000  Level Seattle Center
04:20PM 41.3667 -121.4958 168° South 432 497 41,000  Level Seattle Center
04:20PM 41.2731 -121.4686 168° South 430 495 41,000  Level Oakland Center
04:21PM 41.1550 -121.4350 168° South 435 501 41,000  Level Oakland Center
04:22PM 41.0244 -121.3958 167° South 435 501 41,000  Level Oakland Center
04:23PM 41.0122 -121.3928 169° South 436 502 41,000  Level Seattle Center
04:24PM 40.8700 -121.3550 169° South 435 501 41,000  Level Seattle Center
04:25PM 40.7506 -121.3203 168° South 438 504 41,000  Level Seattle Center
04:26PM 40.6300 -121.2872 168° South 439 505 41,000  Level Seattle Center
04:27PM 40.5464 -121.2619 167° South 438 504 41,000  Level Oakland Center
04:28PM 40.4256 -121.2286 168° South 441 507 41,000  Level Oakland Center
04:29PM 40.3047 -121.1942 168° South 443 510 41,000  Level Oakland Center
04:30PM 40.1828 -121.1611 168° South 445 512 41,000  Level Oakland Center
04:31PM 40.0614 -121.1278 168° South 445 512 41,000  Level Oakland Center
04:32PM 39.9358 -121.0931 168° South 449 517 41,000  Level Oakland Center
04:33PM 39.8136 -121.0583 168° South 449 517 41,000  Level Oakland Center
04:34PM 39.6906 -121.0256 168° South 451 519 41,000  Level Oakland Center
04:35PM 39.5417 -120.9842 168° South 456 525 41,000  Level Oakland Center
04:36PM 39.4186 -120.9522 169° South 452 520 41,000  Level Oakland Center
04:37PM 39.2947 -120.9172 168° South 454 522 41,000  Level Oakland Center
04:38PM 39.1708 -120.8842 168° South 453 521 41,000  Level Oakland Center
04:39PM 39.0461 -120.8500 168° South 455 524 41,000  Level Oakland Center
04:40PM 38.9219 -120.8169 168° South 453 521 41,000  Level Oakland Center
04:41PM 38.7967 -120.7839 168° South 455 524 41,000  Level Oakland Center
04:42PM 38.6722 -120.7489 168° South 453 521 41,000  Level Oakland Center
04:43PM 38.5467 -120.7164 169° South 455 524 41,000  Level Oakland Center
04:44PM 38.4211 -120.6828 168° South 455 524 41,000  Level Oakland Center
04:45PM 38.2964 -120.6511 169° South 455 524 41,000  Level Oakland Center
04:46PM 38.1725 -120.6181 168° South 453 521 41,000  Level Oakland Center
04:47PM 38.0489 -120.5856 168° South 453 521 41,000  Level Oakland Center
04:48PM 37.9250 -120.5528 168° South 452 520 41,000  Level Oakland Center
04:49PM 37.8025 -120.5208 168° South 449 517 41,000  Level Oakland Center
04:50PM 37.6531 -120.4825 169° South 454 522 41,000  Level Oakland Center
04:51PM 37.5292 -120.4506 168° South 454 522 41,000  Level Oakland Center
04:52PM 37.4061 -120.4189 168° South 452 520 41,000  Level Oakland Center
04:53PM 37.2772 -120.3908 170° South 469 540 41,000 -300 Level Oakland Center
04:54PM 37.1531 -120.3589 168° South 454 522 40,500 -600 Descending Oakland Center
04:55PM 37.0308 -120.3275 168° South 446 513 39,900 -720 Descending Oakland Center
04:56PM 36.9142 -120.2936 167° South 431 496 39,100 -900 Descending Oakland Center
04:57PM 36.7944 -120.2650 169° South 458 527 38,100 -1,140 Descending Oakland Center
04:58PM 36.6481 -120.2250 168° South 443 510 36,800 -1,140 Descending Oakland Center
04:59PM 36.5231 -120.1931 168° South 471 542 35,800 -1,080 Descending Oakland Center
05:00PM 36.3989 -120.1633 169° South 448 516 34,700 -1,080 Descending Oakland Center
05:01PM 36.2769 -120.1317 168° South 442 509 33,700 -840 Descending Oakland Center
05:02PM 36.1547 -120.1003 168° South 445 512 33,000 -360 Descending Oakland Center
05:03PM 36.0356 -120.0711 169° South 435 501 33,000  Level Oakland Center
05:04PM 35.9197 -120.0467 170° South 423 487 33,000  Level Oakland Center
05:05PM 35.8000 -120.0164 168° South 433 498 33,000 -60 Level Oakland Center
05:06PM 35.6822 -119.9861 168° South 431 496 32,900  Descending Oakland Center
05:07PM 35.5792 -119.9172 151° Southeast 420 483 33,000  Climbing Oakland Center
05:08PM 35.4833 -119.8353 145° Southeast 418 481 32,900 -600 Descending Oakland Center
05:09PM 35.3875 -119.7539 145° Southeast 417 480 31,900 -1,080 Descending Oakland Center
05:10PM 35.2931 -119.6731 145° Southeast 415 478 30,700 -1,320 Descending Oakland Center
05:11PM 35.1844 -119.5800 145° Southeast 398 458 29,300 -1,320 Descending Oakland Center
05:12PM 35.0956 -119.5039 145° Southeast 392 451 28,100 -1,200 Descending Oakland Center
05:14PM 34.9928 -119.4156 145° Southeast 378 435 26,700 -1,680 Descending Los Angeles Center
05:15PM 34.9050 -119.3411 145° Southeast 381 438 24,300 -2,580 Descending Los Angeles Center
05:16PM 34.8167 -119.2664 145° Southeast 386 444 21,400 -2,760 Descending Los Angeles Center
05:17PM 34.7319 -119.1947 145° Southeast 370 426 18,600 -2,760 Descending Los Angeles Center
05:18PM 34.6425 -119.1183 145° Southeast 345 397 15,800 -2,580 Descending Los Angeles Center
05:19PM 34.5664 -119.0581 147° Southeast 318 366 13,300 -2,280 Descending Los Angeles Center
05:20PM 34.4931 -118.9983 146° Southeast 318 366 11,100 -1,200 Descending Los Angeles Center
05:21PM 34.4267 -118.9381 143° Southeast 303 349 10,900 -780 Descending Los Angeles Center
05:22PM 34.3586 -118.8789 144° Southeast 304 350 9,500 -960 Descending Los Angeles Center
05:23PM 34.3272 -118.7931 114° Southeast 273 314 9,000 -540 Descending Los Angeles Center
05:24PM 34.2933 -118.6947 113° Southeast 265 305 8,400 -960 Descending Los Angeles Center
05:25PM 34.2667 -118.6167 112° Southeast 277 319 7,200 -780 Descending Southern California TRACON
05:26PM 34.2333 -118.5333 116° Southeast 262 302 7,000 -360 Descending Southern California TRACON
05:27PM 34.2167 -118.4500 104° East 271 312 6,500 -780 Descending Southern California TRACON
05:28PM 34.1822 -118.3572 114° Southeast 264 304 5,400 -1,200 Descending Los Angeles Center
05:29PM 34.1169 -118.3436 170° South 253 291 3,900 -1,500 Descending Los Angeles Center
05:30PM 34.0583 -118.3994 218° Southwest 233 268 2,400 -1,560 Descending Los Angeles Center
05:31PM 34.0300 -118.4369 228° Southwest 186 214 700 -1,140 Descending Los Angeles Center
05:32PM 34.0139 -118.4542 222° Southwest 109 125 100 -600 Descending Los Angeles Center
05:34PM 34.0158 -118.4513 180° South  Level Estimated
05:41PM 34.0158 -118.4513 180° South  Level Estimated